ESMK/KID METAR and TAF weather

Enter ICAO airport designator
Station Type Date Time Source
ESMK METAR 2019/10/15 08:20 UTC NOAA

ESMK 150820Z 10010KT 9999 BKN006 12/11 Q1012


Station Type Date Time Source
ESMK Decoded METAR 2019/10/15 08:20 UTC NOAA

Kristianstad / Everod, Sweden (ESMK) 55-55N 014-05E
Oct 15, 2019 - 04:20 AM EDT / 2019.10.15 0820 UTC
Wind: from the E (100 degrees) at 12 MPH (10 KT):0
Visibility: greater than 7 mile(s):0
Sky conditions: mostly cloudy
Temperature: 53 F (12 C)
Dew Point: 51 F (11 C)
Relative Humidity: 93%
Pressure (altimeter): 29.88 in. Hg (1012 hPa)
ob: ESMK 150820Z 10010KT 9999 BKN006 12/11 Q1012
cycle: 8

Station Type Date Time Source
ESMK TAF 2015/03/18 12:33 UTC NOAA

TAF ESMK 181130Z 1812/1824 13012KT CAVOK

Example: see airport list